createdAt,value
2018-11-12T00:02:26.234Z,12.30
2018-11-12T00:05:07.375Z,12.30
2018-11-12T00:07:45.299Z,12.20
2018-11-12T00:10:21.765Z,12.30
2018-11-12T00:12:51.178Z,12.10
2018-11-12T00:15:20.082Z,12.00
2018-11-12T00:18:01.559Z,11.90
2018-11-12T00:20:29.710Z,12.00
2018-11-12T00:23:00.990Z,11.90
2018-11-12T00:25:29.484Z,11.80
2018-11-12T00:27:57.615Z,11.80
2018-11-12T00:30:27.010Z,11.80
2018-11-12T00:32:55.646Z,11.70
2018-11-12T00:35:23.611Z,11.80
2018-11-12T00:37:55.739Z,11.80
2018-11-12T00:40:24.656Z,11.70
2018-11-12T00:42:56.674Z,11.70
2018-11-12T00:45:27.739Z,11.60
2018-11-12T00:47:55.611Z,11.60
2018-11-12T00:50:30.479Z,11.50
2018-11-12T00:53:06.866Z,11.50
2018-11-12T00:55:37.063Z,11.50
2018-11-12T00:58:07.210Z,11.50
2018-11-12T01:00:36.169Z,11.50
2018-11-12T01:03:04.788Z,11.50
2018-11-12T01:05:32.753Z,11.50
2018-11-12T01:08:00.726Z,11.40
2018-11-12T01:10:33.671Z,11.40
2018-11-12T01:13:04.099Z,11.40
2018-11-12T01:15:34.120Z,11.30
2018-11-12T01:18:02.068Z,11.40
2018-11-12T01:20:29.954Z,11.40
2018-11-12T01:22:58.602Z,11.40
2018-11-12T01:25:26.469Z,11.30
2018-11-12T01:27:54.442Z,11.30
2018-11-12T01:30:23.796Z,11.20
2018-11-12T01:32:52.071Z,11.20
2018-11-12T01:35:22.032Z,11.20
2018-11-12T01:37:51.132Z,11.20
2018-11-12T01:40:19.729Z,11.10
2018-11-12T01:43:03.700Z,11.10
2018-11-12T01:45:31.686Z,11.10
2018-11-12T01:48:03.068Z,11.10
2018-11-12T01:50:31.676Z,11.10
2018-11-12T01:52:59.571Z,11.10
2018-11-12T01:55:28.317Z,11.00
2018-11-12T01:57:59.862Z,11.10
2018-11-12T02:00:27.775Z,11.10
2018-11-12T02:02:55.718Z,11.00
2018-11-12T02:05:24.396Z,10.90
2018-11-12T02:07:52.316Z,10.80
2018-11-12T02:10:20.166Z,10.70
2018-11-12T02:12:48.714Z,10.70
2018-11-12T02:15:19.039Z,10.60
2018-11-12T02:17:50.868Z,10.60
2018-11-12T02:20:19.976Z,10.50
2018-11-12T02:22:48.945Z,10.50
2018-11-12T02:25:19.363Z,10.60
2018-11-12T02:27:48.161Z,10.50
2018-11-12T02:30:22.849Z,10.60
2018-11-12T02:32:52.796Z,10.70
2018-11-12T02:35:20.852Z,10.80
2018-11-12T02:37:48.746Z,10.80
2018-11-12T02:40:17.266Z,10.80
2018-11-12T02:42:45.156Z,10.70
2018-11-12T02:45:14.955Z,10.60
2018-11-12T02:47:43.456Z,10.50
2018-11-12T02:50:14.767Z,10.50
2018-11-12T02:52:43.084Z,10.50
2018-11-12T02:55:12.652Z,10.50
2018-11-12T02:57:43.426Z,10.50
2018-11-12T03:00:16.362Z,10.50
2018-11-12T03:02:44.483Z,10.50
2018-11-12T03:05:12.609Z,10.70
2018-11-12T03:07:42.008Z,10.90
2018-11-12T03:10:15.238Z,11.10
2018-11-12T03:12:44.636Z,11.20
2018-11-12T03:15:17.179Z,11.20
2018-11-12T03:17:48.886Z,11.30
2018-11-12T03:20:18.773Z,11.30
2018-11-12T03:22:54.433Z,11.30
2018-11-12T03:25:23.926Z,11.40
2018-11-12T03:27:52.021Z,11.40
2018-11-12T03:30:29.466Z,11.50
2018-11-12T03:32:57.460Z,11.60
2018-11-12T03:35:41.412Z,11.60
2018-11-12T03:38:09.938Z,11.60
2018-11-12T03:40:38.889Z,11.50
2018-11-12T03:43:06.867Z,11.80
2018-11-12T03:45:34.970Z,11.70
2018-11-12T03:48:28.477Z,11.70
2018-11-12T03:54:00.298Z,11.60
2018-11-12T03:56:55.397Z,11.50
2018-11-12T03:59:46.984Z,11.40
2018-11-12T04:02:15.346Z,11.50
2018-11-12T04:04:47.752Z,11.40
2018-11-12T04:07:43.150Z,11.50
2018-11-12T04:10:33.136Z,11.50
2018-11-12T04:13:01.712Z,11.50
2018-11-12T04:15:30.902Z,11.60
2018-11-12T04:17:58.817Z,11.70
2018-11-12T04:20:27.491Z,11.60
2018-11-12T04:23:02.107Z,11.70
2018-11-12T04:25:31.556Z,11.70
2018-11-12T04:28:00.760Z,11.70
2018-11-12T04:30:28.658Z,11.80
2018-11-12T04:32:57.279Z,11.80
2018-11-12T04:35:26.530Z,11.80
2018-11-12T04:37:54.495Z,11.90
2018-11-12T04:40:23.676Z,11.90
2018-11-12T04:42:54.023Z,11.90
2018-11-12T04:45:26.488Z,11.90
2018-11-12T04:47:55.438Z,11.90
2018-11-12T04:50:26.828Z,12.00
2018-11-12T04:52:56.853Z,12.10
2018-11-12T04:55:25.796Z,12.20
2018-11-12T04:57:53.622Z,12.20
2018-11-12T05:00:23.911Z,12.20
2018-11-12T05:02:51.817Z,12.20
2018-11-12T05:05:21.054Z,12.20
2018-11-12T05:07:51.220Z,12.20
2018-11-12T05:10:21.048Z,12.30
2018-11-12T05:12:50.873Z,12.30
2018-11-12T05:15:22.124Z,12.30
2018-11-12T05:17:51.023Z,12.30
2018-11-12T05:20:23.198Z,12.20
2018-11-12T05:22:51.084Z,12.20
2018-11-12T05:25:26.407Z,12.30
2018-11-12T05:27:56.032Z,12.30
2018-11-12T05:30:29.258Z,12.30
2018-11-12T05:32:57.774Z,12.30
2018-11-12T05:35:43.012Z,12.40
2018-11-12T05:38:11.168Z,12.40
2018-11-12T05:40:39.123Z,12.50
2018-11-12T05:43:07.172Z,12.50
2018-11-12T05:45:35.339Z,12.50
2018-11-12T05:48:03.301Z,12.50
2018-11-12T05:50:35.729Z,12.50
2018-11-12T05:53:04.464Z,12.50
2018-11-12T05:55:37.548Z,12.60
2018-11-12T05:58:05.586Z,12.60
2018-11-12T06:00:36.680Z,12.70
2018-11-12T06:03:06.539Z,12.80
2018-11-12T06:05:43.436Z,12.70
2018-11-12T06:08:19.242Z,12.70
2018-11-12T06:10:48.935Z,12.70
2018-11-12T06:13:29.226Z,12.70
2018-11-12T06:16:13.307Z,12.70
2018-11-12T06:24:55.979Z,12.70
2018-11-12T06:27:27.924Z,12.90
2018-11-12T06:30:37.048Z,12.80
2018-11-12T06:36:27.415Z,13.00
2018-11-12T06:38:56.736Z,12.90
2018-11-12T06:51:40.529Z,13.00
2018-11-12T06:54:39.526Z,13.00
2018-11-12T06:57:15.694Z,13.00
2018-11-12T07:03:35.558Z,13.00
2018-11-12T07:06:42.895Z,13.00
2018-11-12T07:09:30.299Z,13.10
2018-11-12T07:12:25.880Z,13.10
2018-11-12T07:15:18.812Z,13.00
2018-11-12T07:18:19.590Z,13.10
2018-11-12T07:20:47.850Z,13.10
2018-11-12T07:23:17.868Z,13.10
2018-11-12T07:25:46.455Z,13.20
2018-11-12T07:28:14.936Z,13.30
2018-11-12T07:30:54.000Z,13.30
2018-11-12T07:33:41.595Z,13.50
2018-11-12T07:36:23.493Z,13.40
2018-11-12T07:39:01.254Z,13.50
2018-11-12T07:41:45.103Z,13.50
2018-11-12T07:44:28.565Z,13.60
2018-11-12T07:46:59.938Z,13.70
2018-11-12T07:49:30.084Z,13.80
2018-11-12T07:59:47.236Z,14.00
2018-11-12T08:03:00.744Z,14.00
2018-11-12T08:05:35.157Z,13.90
2018-11-12T08:08:14.862Z,13.90
2018-11-12T08:10:53.232Z,13.90
2018-11-12T08:13:44.460Z,13.80
2018-11-12T08:16:14.456Z,13.70
2018-11-12T08:24:53.637Z,13.50
2018-11-12T08:27:22.917Z,13.60
2018-11-12T08:30:10.915Z,13.60
2018-11-12T08:33:06.997Z,13.60
2018-11-12T08:35:36.512Z,13.70
2018-11-12T08:38:05.681Z,13.80
2018-11-12T08:41:00.392Z,13.90
2018-11-12T08:43:45.126Z,14.00
2018-11-12T08:46:33.762Z,13.90
2018-11-12T08:49:17.647Z,13.90
2018-11-12T08:51:50.845Z,13.90
2018-11-12T08:54:18.869Z,13.90
2018-11-12T08:56:51.866Z,13.90
2018-11-12T08:59:25.160Z,13.90
2018-11-12T09:01:53.329Z,13.90
2018-11-12T09:04:23.923Z,13.90
2018-11-12T09:07:12.163Z,14.00
2018-11-12T09:09:42.695Z,14.10
2018-11-12T09:12:12.514Z,14.20
2018-11-12T09:14:42.670Z,14.30
2018-11-12T09:17:14.240Z,14.30
2018-11-12T09:19:46.910Z,14.40
2018-11-12T09:22:56.680Z,14.40
2018-11-12T09:29:33.205Z,14.50
2018-11-12T09:32:49.159Z,14.50
2018-11-12T09:35:37.267Z,14.40
2018-11-12T09:38:34.412Z,14.50
2018-11-12T09:41:32.686Z,14.50
2018-11-12T09:44:02.491Z,14.50
2018-11-12T09:46:33.689Z,14.60
2018-11-12T09:49:32.598Z,14.60
2018-11-12T09:55:11.543Z,14.50
2018-11-12T09:57:43.711Z,14.50
2018-11-12T10:06:47.268Z,14.40
2018-11-12T10:09:17.647Z,14.40
2018-11-12T10:11:47.155Z,14.40
2018-11-12T10:14:59.413Z,14.40
2018-11-12T10:17:53.863Z,14.50
2018-11-12T10:20:23.328Z,14.60
2018-11-12T10:30:02.307Z,14.40
2018-11-12T10:32:54.546Z,14.50
2018-11-12T10:35:27.480Z,14.50
2018-11-12T10:38:09.657Z,14.50
2018-11-12T10:46:10.901Z,14.60
2018-11-12T10:48:41.835Z,14.50
2018-11-12T10:51:12.339Z,14.40
2018-11-12T10:53:50.041Z,14.50
2018-11-12T11:05:59.780Z,14.20
2018-11-12T11:08:50.139Z,14.20
2018-11-12T11:11:33.632Z,14.30
2018-11-12T11:14:04.912Z,14.30
2018-11-12T11:17:08.470Z,14.40
2018-11-12T11:19:49.874Z,14.40
2018-11-12T11:22:22.563Z,14.40
2018-11-12T11:24:50.611Z,14.20
2018-11-12T11:27:21.237Z,14.10
2018-11-12T11:29:50.821Z,14.10
2018-11-12T11:32:20.886Z,14.10
2018-11-12T11:34:50.602Z,14.10
2018-11-12T11:37:36.508Z,14.10
2018-11-12T11:43:55.032Z,14.00
2018-11-12T11:46:22.911Z,13.90
2018-11-12T11:49:04.778Z,13.80
2018-11-12T11:54:25.108Z,13.70
2018-11-12T11:57:16.681Z,13.80
2018-11-12T11:59:52.219Z,13.70
2018-11-12T12:02:22.861Z,13.80
2018-11-12T12:08:28.353Z,13.70
2018-11-12T12:10:57.651Z,13.70
2018-11-12T12:13:26.102Z,13.70
2018-11-12T12:18:47.738Z,13.70
2018-11-12T12:21:17.999Z,13.70
2018-11-12T12:23:47.868Z,13.80
2018-11-12T12:26:32.381Z,13.70
2018-11-12T12:29:03.172Z,13.70
2018-11-12T12:31:33.043Z,13.70
2018-11-12T12:34:29.207Z,13.90
2018-11-12T12:40:11.733Z,14.10
2018-11-12T12:42:42.918Z,14.10
2018-11-12T12:45:19.192Z,14.10
2018-11-12T12:47:51.178Z,14.10
2018-11-12T12:50:39.718Z,14.10
2018-11-12T12:53:07.689Z,14.10
2018-11-12T12:55:45.076Z,14.10
2018-11-12T12:58:17.589Z,14.20
2018-11-12T13:00:47.288Z,14.20
2018-11-12T13:04:02.328Z,14.10
2018-11-12T13:12:54.984Z,14.20
2018-11-12T13:15:49.356Z,14.30
2018-11-12T13:18:20.160Z,14.40
2018-11-12T13:20:49.437Z,14.40
2018-11-12T13:23:55.131Z,14.40
2018-11-12T13:26:25.908Z,14.50
2018-11-12T13:29:20.171Z,14.60
2018-11-12T13:31:58.489Z,14.70
2018-11-12T13:34:28.137Z,14.80
2018-11-12T13:36:58.738Z,15.00
2018-11-12T13:39:29.455Z,15.20
2018-11-12T13:42:06.629Z,15.30
2018-11-12T13:44:35.969Z,15.30
2018-11-12T13:47:21.154Z,15.30
2018-11-12T13:50:20.557Z,15.20
2018-11-12T13:53:15.313Z,15.20
2018-11-12T13:55:46.438Z,15.20
2018-11-12T13:58:16.273Z,15.20
2018-11-12T14:01:06.090Z,15.20
2018-11-12T14:06:45.450Z,15.20
2018-11-12T14:09:52.197Z,15.30
2018-11-12T14:16:11.797Z,15.30
2018-11-12T14:18:41.935Z,15.40
2018-11-12T14:21:22.251Z,15.50
2018-11-12T14:23:54.818Z,15.50
2018-11-12T14:26:35.456Z,15.50
2018-11-12T14:29:10.723Z,15.40
2018-11-12T14:31:51.514Z,15.30
2018-11-12T14:40:48.305Z,15.30
2018-11-12T14:43:23.430Z,15.30
2018-11-12T14:46:23.996Z,15.30
2018-11-12T14:49:12.620Z,15.30
2018-11-12T14:52:13.658Z,15.30
2018-11-12T14:54:47.485Z,15.20
2018-11-12T14:57:49.711Z,15.20
2018-11-12T15:00:24.828Z,15.10
2018-11-12T15:02:58.610Z,15.10
2018-11-12T15:05:57.161Z,15.10
2018-11-12T15:08:51.093Z,15.10
2018-11-12T15:11:23.617Z,15.10
2018-11-12T15:13:53.219Z,15.10
2018-11-12T15:16:22.405Z,15.10
2018-11-12T15:18:52.401Z,15.00
2018-11-12T15:24:46.750Z,14.90
2018-11-12T15:27:22.251Z,14.90
2018-11-12T15:29:50.735Z,14.70
2018-11-12T15:32:18.589Z,14.80
2018-11-12T15:34:49.742Z,14.70
2018-11-12T15:40:28.857Z,14.70
2018-11-12T15:42:58.321Z,14.70
2018-11-12T15:48:53.083Z,14.60
2018-11-12T15:51:55.967Z,14.50
2018-11-12T15:54:25.757Z,14.50
2018-11-12T15:57:34.665Z,14.60
2018-11-12T16:00:48.088Z,14.50
2018-11-12T16:04:00.365Z,14.50
2018-11-12T16:06:33.033Z,14.50
2018-11-12T16:09:01.546Z,14.40
2018-11-12T16:11:32.763Z,14.40
2018-11-12T16:14:02.853Z,14.50
2018-11-12T16:16:32.609Z,14.50
2018-11-12T16:19:09.223Z,14.40
2018-11-12T16:21:44.253Z,14.50
2018-11-12T16:24:13.155Z,14.40
2018-11-12T16:30:24.429Z,14.50
2018-11-12T16:36:12.829Z,14.40
2018-11-12T16:38:42.465Z,14.40
2018-11-12T16:41:13.534Z,14.40
2018-11-12T16:47:15.516Z,14.40
2018-11-12T16:49:55.703Z,14.30
2018-11-12T16:52:27.419Z,14.30
2018-11-12T16:55:02.463Z,14.20
2018-11-12T16:57:37.618Z,14.20
2018-11-12T17:00:11.035Z,14.20
2018-11-12T17:03:28.782Z,14.20
2018-11-12T17:06:05.201Z,14.10
2018-11-12T17:08:37.010Z,14.10
2018-11-12T17:11:15.051Z,14.10
2018-11-12T17:21:13.264Z,14.20
2018-11-12T17:23:48.904Z,14.10
2018-11-12T17:29:44.005Z,14.10
2018-11-12T17:32:14.573Z,14.10
2018-11-12T17:34:42.511Z,14.00
2018-11-12T17:39:59.279Z,14.00
2018-11-12T17:42:37.381Z,14.10
2018-11-12T17:45:10.248Z,14.20
2018-11-12T17:54:41.126Z,14.30
2018-11-12T17:57:35.529Z,14.30
2018-11-12T18:00:21.213Z,13.90
2018-11-12T18:03:33.746Z,13.70
2018-11-12T18:06:16.131Z,13.50
2018-11-12T18:08:45.610Z,13.20
2018-11-12T18:11:16.783Z,13.20
2018-11-12T18:13:49.136Z,13.00
2018-11-12T18:16:19.920Z,12.80
2018-11-12T18:18:50.694Z,12.60
2018-11-12T18:21:20.063Z,12.70
2018-11-12T18:23:52.771Z,12.60
2018-11-12T18:26:25.671Z,12.60
2018-11-12T18:28:58.041Z,12.60
2018-11-12T18:32:00.953Z,12.60
2018-11-12T18:51:27.684Z,12.70
2018-11-12T18:53:58.380Z,12.60
2018-11-12T18:56:30.621Z,12.60
2018-11-12T18:59:01.689Z,12.60
2018-11-12T19:01:31.888Z,12.50
2018-11-12T19:04:01.011Z,12.50
2018-11-12T19:06:31.552Z,12.40
2018-11-12T19:09:06.855Z,12.40
2018-11-12T19:14:46.365Z,12.40
2018-11-12T19:17:18.610Z,12.50
2018-11-12T19:19:50.734Z,12.40
2018-11-12T19:22:20.722Z,12.40
2018-11-12T19:24:53.653Z,12.40
2018-11-12T19:27:28.771Z,12.30
2018-11-12T19:30:25.947Z,12.30
2018-11-12T19:32:58.905Z,12.40
2018-11-12T19:35:33.731Z,12.40
2018-11-12T19:38:04.698Z,12.40
2018-11-12T19:40:35.878Z,12.30
2018-11-12T19:43:10.736Z,12.30
2018-11-12T19:45:48.980Z,12.30
2018-11-12T19:48:24.552Z,12.30
2018-11-12T19:50:56.052Z,12.30
2018-11-12T19:53:25.851Z,12.20
2018-11-12T19:55:57.517Z,12.20
2018-11-12T19:58:30.926Z,12.20
2018-11-12T20:01:09.154Z,12.20
2018-11-12T20:04:06.489Z,12.20
2018-11-12T20:06:43.407Z,12.20
2018-11-12T20:10:08.269Z,12.20
2018-11-12T20:16:39.250Z,12.20
2018-11-12T20:19:49.077Z,12.20
2018-11-12T20:22:20.750Z,12.20
2018-11-12T20:24:49.729Z,12.20
2018-11-12T20:27:22.370Z,12.20
2018-11-12T20:29:53.893Z,12.20
2018-11-12T20:32:25.416Z,12.30
2018-11-12T20:35:00.547Z,12.20
2018-11-12T20:37:33.389Z,12.20
2018-11-12T20:40:02.309Z,12.20
2018-11-12T20:42:33.094Z,12.20
2018-11-12T20:45:06.322Z,12.20
2018-11-12T20:47:37.549Z,12.20
2018-11-12T20:50:16.716Z,12.20
2018-11-12T20:52:46.969Z,12.20
2018-11-12T20:55:17.876Z,12.20
2018-11-12T20:57:53.546Z,12.20
2018-11-12T21:00:26.761Z,12.20
2018-11-12T21:02:55.929Z,12.20
2018-11-12T21:05:28.819Z,12.20
2018-11-12T21:07:57.926Z,12.10
2018-11-12T21:10:27.011Z,12.10
2018-11-12T21:12:57.221Z,12.10
2018-11-12T21:15:32.346Z,12.10
2018-11-12T21:18:02.998Z,12.10
2018-11-12T21:20:32.636Z,12.10
2018-11-12T21:23:24.791Z,12.10
2018-11-12T21:26:12.765Z,12.10
2018-11-12T21:28:41.719Z,12.00
2018-11-12T21:31:12.009Z,12.20
2018-11-12T21:33:40.501Z,12.20
2018-11-12T21:40:01.094Z,12.20
2018-11-12T21:42:50.591Z,12.20
2018-11-12T21:45:30.059Z,12.20
2018-11-12T21:47:58.951Z,12.30
2018-11-12T21:50:28.772Z,12.30
2018-11-12T21:53:03.506Z,12.30
2018-11-12T21:56:03.353Z,12.30
2018-11-12T21:59:03.564Z,12.30
2018-11-12T22:01:37.655Z,12.30
2018-11-12T22:04:06.230Z,12.40
2018-11-12T22:06:36.176Z,12.30
2018-11-12T22:09:08.505Z,12.30
2018-11-12T22:11:40.327Z,12.30
2018-11-12T22:14:11.359Z,12.30
2018-11-12T22:16:42.093Z,12.30
2018-11-12T22:19:10.702Z,12.30
2018-11-12T22:21:39.463Z,12.30
2018-11-12T22:24:08.332Z,12.20
2018-11-12T22:26:36.867Z,12.20
2018-11-12T22:29:08.338Z,12.20
2018-11-12T22:31:42.554Z,12.30
2018-11-12T22:34:19.909Z,12.20
2018-11-12T22:36:51.824Z,12.20
2018-11-12T22:39:20.706Z,12.20
2018-11-12T22:41:49.956Z,12.20
2018-11-12T22:44:18.661Z,12.10
2018-11-12T22:46:47.802Z,12.20
2018-11-12T22:49:17.223Z,12.10
2018-11-12T22:51:47.058Z,12.10
2018-11-12T22:56:53.123Z,12.20
2018-11-12T22:59:22.327Z,12.20
2018-11-12T23:01:56.878Z,12.20
2018-11-12T23:04:30.120Z,12.10
2018-11-12T23:06:58.895Z,12.10
2018-11-12T23:09:27.574Z,12.10
2018-11-12T23:11:58.132Z,12.10
2018-11-12T23:14:28.498Z,12.10
2018-11-12T23:17:17.189Z,12.10
2018-11-12T23:19:45.319Z,12.10
2018-11-12T23:22:46.956Z,12.00
2018-11-12T23:25:33.944Z,12.00
2018-11-12T23:34:41.299Z,12.00
2018-11-12T23:37:12.622Z,12.00
2018-11-12T23:39:43.552Z,12.00
2018-11-12T23:42:12.160Z,11.90
2018-11-12T23:44:41.254Z,11.90
2018-11-12T23:47:10.052Z,11.90
2018-11-12T23:49:38.569Z,11.90
2018-11-12T23:52:09.576Z,12.00
2018-11-12T23:54:37.591Z,12.00
2018-11-12T23:57:05.657Z,12.00
2018-11-12T23:59:34.430Z,12.00
